createdAt,value
2019-03-03T00:01:17.660Z,74.50
2019-03-03T00:04:01.701Z,75.20
2019-03-03T00:06:46.002Z,72.80
2019-03-03T00:09:31.276Z,75.20
2019-03-03T00:12:12.201Z,80.00
2019-03-03T00:14:54.844Z,75.30
2019-03-03T00:17:38.679Z,75.00
2019-03-03T00:20:19.609Z,75.20
2019-03-03T00:23:01.121Z,73.70
2019-03-03T00:25:47.917Z,73.00
2019-03-03T00:28:30.848Z,72.90
2019-03-03T00:31:13.283Z,72.70
2019-03-03T00:33:52.521Z,72.60
2019-03-03T00:37:14.551Z,74.50
2019-03-03T00:40:24.010Z,76.00
2019-03-03T00:43:31.753Z,76.20
2019-03-03T00:46:22.739Z,76.40
2019-03-03T00:49:38.164Z,73.70
2019-03-03T00:52:43.348Z,73.50
2019-03-03T00:55:49.477Z,73.50
2019-03-03T00:59:06.031Z,76.50
2019-03-03T01:02:18.036Z,73.40
2019-03-03T01:05:20.705Z,72.40
2019-03-03T01:08:25.754Z,73.00
2019-03-03T01:11:24.146Z,70.50
2019-03-03T01:14:29.495Z,71.00
2019-03-03T01:17:39.107Z,74.00
2019-03-03T01:20:40.915Z,70.70
2019-03-03T01:23:45.272Z,70.80
2019-03-03T01:26:30.198Z,71.40
2019-03-03T01:29:32.088Z,69.60
2019-03-03T01:32:17.889Z,72.00
2019-03-03T01:35:01.011Z,73.10
2019-03-03T01:37:45.633Z,73.90
2019-03-03T01:40:32.578Z,74.80
2019-03-03T01:43:16.415Z,72.70
2019-03-03T01:46:03.748Z,73.00
2019-03-03T01:48:46.862Z,70.40
2019-03-03T01:51:49.425Z,72.60
2019-03-03T01:54:31.361Z,74.90
2019-03-03T01:57:16.886Z,69.70
2019-03-03T02:00:07.211Z,72.00
2019-03-03T02:02:48.787Z,71.60
2019-03-03T02:05:37.608Z,68.90
2019-03-03T02:08:19.546Z,68.30
2019-03-03T02:11:18.524Z,71.50
2019-03-03T02:14:06.969Z,68.20
2019-03-03T02:17:10.046Z,69.60
2019-03-03T02:20:04.174Z,69.30
2019-03-03T02:22:57.835Z,67.90
2019-03-03T02:25:59.291Z,67.20
2019-03-03T02:28:45.149Z,67.00
2019-03-03T02:31:36.457Z,69.10
2019-03-03T02:34:21.562Z,67.40
2019-03-03T02:37:09.867Z,68.30
2019-03-03T02:39:54.821Z,66.90
2019-03-03T02:42:46.777Z,67.30
2019-03-03T02:45:50.433Z,65.40
2019-03-03T02:48:34.402Z,66.20
2019-03-03T02:51:24.832Z,64.00
2019-03-03T02:54:10.355Z,64.00
2019-03-03T02:57:01.281Z,65.10
2019-03-03T02:59:47.079Z,67.60
2019-03-03T03:03:03.939Z,67.40
2019-03-03T03:06:09.534Z,67.50
2019-03-03T03:09:08.021Z,65.80
2019-03-03T03:12:36.916Z,64.20
2019-03-03T03:15:41.806Z,62.90
2019-03-03T03:18:48.949Z,64.20
2019-03-03T03:21:45.884Z,66.70
2019-03-03T03:25:04.895Z,62.20
2019-03-03T03:28:13.913Z,62.20
2019-03-03T03:31:13.433Z,62.90
2019-03-03T03:34:13.827Z,61.60
2019-03-03T03:37:46.011Z,61.60
2019-03-03T03:41:04.147Z,61.40
2019-03-03T03:44:09.206Z,61.60
2019-03-03T03:47:24.350Z,60.60
2019-03-03T03:50:47.365Z,60.70
2019-03-03T03:54:11.777Z,60.40
2019-03-03T03:57:18.214Z,62.90
2019-03-03T04:00:26.791Z,63.40
2019-03-03T04:03:43.509Z,59.80
2019-03-03T04:07:01.235Z,60.60
2019-03-03T04:10:03.961Z,63.40
2019-03-03T04:13:03.836Z,58.70
2019-03-03T04:16:17.952Z,58.40
2019-03-03T04:19:14.102Z,58.70
2019-03-03T04:22:43.916Z,57.40
2019-03-03T04:25:42.165Z,56.20
2019-03-03T04:28:54.828Z,56.10
2019-03-03T04:32:09.671Z,55.20
2019-03-03T04:35:06.235Z,56.90
2019-03-03T04:38:30.151Z,58.50
2019-03-03T04:41:36.950Z,57.10
2019-03-03T04:44:44.436Z,56.50
2019-03-03T04:47:44.974Z,56.40
2019-03-03T04:51:02.155Z,55.70
2019-03-03T04:54:06.440Z,54.90
2019-03-03T04:57:24.993Z,54.70
2019-03-03T05:00:33.946Z,56.50
2019-03-03T05:03:44.456Z,55.20
2019-03-03T05:07:03.385Z,54.70
2019-03-03T05:10:06.935Z,55.00
2019-03-03T05:13:08.532Z,53.80
2019-03-03T05:16:25.804Z,54.40
2019-03-03T05:19:37.028Z,54.40
2019-03-03T05:22:23.881Z,54.40
2019-03-03T05:25:25.721Z,54.40
2019-03-03T05:28:14.424Z,56.00
2019-03-03T05:31:16.386Z,55.00
2019-03-03T05:34:16.387Z,53.80
2019-03-03T05:37:06.448Z,55.20
2019-03-03T05:39:52.927Z,55.50
2019-03-03T05:42:48.780Z,55.00
2019-03-03T05:45:49.006Z,54.50
2019-03-03T05:48:37.698Z,54.80
2019-03-03T05:51:33.753Z,56.00
2019-03-03T05:54:26.126Z,55.80
2019-03-03T05:57:14.904Z,54.60
2019-03-03T06:00:00.331Z,54.20
2019-03-03T06:03:00.451Z,55.50
2019-03-03T06:05:49.723Z,54.00
2019-03-03T06:08:39.983Z,54.20
2019-03-03T06:11:38.777Z,53.90
2019-03-03T06:14:54.886Z,55.20
2019-03-03T06:17:54.125Z,55.40
2019-03-03T06:20:35.911Z,54.40
2019-03-03T06:23:19.867Z,54.70
2019-03-03T06:26:13.732Z,53.60
2019-03-03T06:28:59.244Z,54.00
2019-03-03T06:31:50.372Z,53.20
2019-03-03T06:35:01.199Z,54.80
2019-03-03T06:38:24.854Z,53.70
2019-03-03T06:41:10.901Z,55.80
2019-03-03T06:44:17.295Z,54.90
2019-03-03T06:47:01.424Z,55.40
2019-03-03T06:49:56.663Z,54.20
2019-03-03T06:52:56.041Z,56.50
2019-03-03T06:56:00.884Z,57.40
2019-03-03T06:59:06.020Z,57.10
2019-03-03T07:01:59.214Z,56.60
2019-03-03T07:04:58.313Z,56.90
2019-03-03T07:07:52.441Z,55.80
2019-03-03T07:11:02.100Z,56.30
2019-03-03T07:13:53.538Z,56.90
2019-03-03T07:16:41.855Z,56.40
2019-03-03T07:19:50.990Z,55.50
2019-03-03T07:22:42.769Z,56.60
2019-03-03T07:25:33.409Z,54.10
2019-03-03T07:28:19.697Z,55.40
2019-03-03T07:31:10.444Z,55.50
2019-03-03T07:34:02.250Z,55.70
2019-03-03T07:37:05.852Z,54.70
2019-03-03T07:40:37.105Z,55.30
2019-03-03T07:43:41.484Z,54.60
2019-03-03T07:46:34.069Z,54.10
2019-03-03T07:49:36.824Z,54.80
2019-03-03T07:52:23.919Z,56.40
2019-03-03T07:55:45.188Z,56.90
2019-03-03T07:58:42.952Z,55.60
2019-03-03T08:01:48.558Z,55.70
2019-03-03T08:04:50.072Z,57.30
2019-03-03T08:11:57.104Z,56.70
2019-03-03T08:14:20.293Z,57.10
2019-03-03T08:17:07.660Z,55.70
2019-03-03T08:20:01.703Z,55.80
2019-03-03T08:22:57.529Z,55.50
2019-03-03T08:25:41.593Z,57.50
2019-03-03T08:28:37.508Z,59.40
2019-03-03T08:31:25.381Z,58.10
2019-03-03T08:34:19.896Z,58.60
2019-03-03T08:37:10.838Z,58.70
2019-03-03T08:39:57.581Z,60.20
2019-03-03T08:42:54.077Z,60.70
2019-03-03T08:45:51.386Z,59.90
2019-03-03T08:48:55.721Z,58.40
2019-03-03T08:52:02.448Z,58.00
2019-03-03T08:55:11.438Z,56.70
2019-03-03T08:58:31.887Z,58.70
2019-03-03T09:01:43.359Z,59.70
2019-03-03T09:05:05.990Z,59.20
2019-03-03T09:08:11.809Z,57.90
2019-03-03T09:11:28.023Z,58.40
2019-03-03T09:14:46.781Z,58.50
2019-03-03T09:18:03.763Z,58.10
2019-03-03T09:21:30.512Z,57.50
2019-03-03T09:24:33.145Z,57.40
2019-03-03T09:27:32.525Z,56.40
2019-03-03T09:30:28.966Z,56.10
2019-03-03T09:33:49.391Z,56.00
2019-03-03T09:36:53.541Z,55.90
2019-03-03T09:39:57.903Z,56.40
2019-03-03T09:43:02.364Z,55.80
2019-03-03T09:46:07.174Z,56.40
2019-03-03T09:49:09.354Z,56.10
2019-03-03T09:52:23.708Z,57.80
2019-03-03T09:55:33.287Z,56.90
2019-03-03T09:58:26.028Z,57.40
2019-03-03T10:01:31.431Z,57.50
2019-03-03T10:04:35.491Z,57.80
2019-03-03T10:07:38.017Z,57.10
2019-03-03T10:10:30.297Z,56.90
2019-03-03T10:13:31.760Z,56.80
2019-03-03T10:16:39.524Z,57.10
2019-03-03T10:19:45.486Z,56.20
2019-03-03T10:22:37.631Z,56.80
2019-03-03T10:25:36.432Z,56.60
2019-03-03T10:28:48.406Z,56.70
2019-03-03T10:31:49.270Z,56.70
2019-03-03T10:35:00.961Z,56.90
2019-03-03T10:38:13.579Z,57.30
2019-03-03T10:41:12.659Z,56.80
2019-03-03T10:44:03.156Z,56.80
2019-03-03T10:47:03.595Z,57.50
2019-03-03T10:50:13.132Z,57.60
2019-03-03T10:53:25.624Z,58.00
2019-03-03T10:56:23.191Z,59.00
2019-03-03T10:59:36.658Z,58.60
2019-03-03T11:02:46.289Z,58.40
2019-03-03T11:05:55.812Z,58.70
2019-03-03T11:08:58.246Z,58.40
2019-03-03T11:12:10.739Z,58.60
2019-03-03T11:15:18.529Z,59.00
2019-03-03T11:18:10.575Z,60.60
2019-03-03T11:21:29.158Z,60.10
2019-03-03T11:24:25.664Z,59.90
2019-03-03T11:27:51.034Z,59.40
2019-03-03T11:31:02.030Z,59.20
2019-03-03T11:34:10.025Z,58.90
2019-03-03T11:37:16.802Z,59.00
2019-03-03T11:40:50.614Z,60.00
2019-03-03T11:44:04.507Z,59.40
2019-03-03T11:47:26.758Z,57.70
2019-03-03T11:50:29.436Z,58.50
2019-03-03T11:53:45.987Z,58.80
2019-03-03T11:57:03.475Z,59.40
2019-03-03T12:00:12.271Z,58.00
2019-03-03T12:03:16.244Z,57.60
2019-03-03T12:06:50.892Z,57.50
2019-03-03T12:10:06.572Z,58.40
2019-03-03T12:13:01.065Z,58.40
2019-03-03T12:16:34.840Z,57.90
2019-03-03T12:19:54.208Z,57.50
2019-03-03T12:23:03.791Z,57.80
2019-03-03T12:26:24.002Z,58.10
2019-03-03T12:30:13.696Z,58.40
2019-03-03T12:33:16.045Z,58.30
2019-03-03T12:36:56.882Z,59.30
2019-03-03T12:40:27.498Z,59.00
2019-03-03T12:43:41.342Z,58.00
2019-03-03T12:46:52.133Z,59.20
2019-03-03T12:50:12.416Z,59.30
2019-03-03T12:53:12.413Z,58.20
2019-03-03T12:56:42.997Z,58.70
2019-03-03T13:00:00.774Z,58.20
2019-03-03T13:03:14.700Z,58.40
2019-03-03T13:06:13.010Z,59.00
2019-03-03T13:09:40.593Z,58.40
2019-03-03T13:12:43.034Z,58.10
2019-03-03T13:16:08.699Z,58.30
2019-03-03T13:19:15.215Z,58.20
2019-03-03T13:22:16.060Z,58.40
2019-03-03T13:25:28.578Z,58.70
2019-03-03T13:28:43.649Z,58.20
2019-03-03T13:32:08.250Z,58.00
2019-03-03T13:35:15.896Z,57.50
2019-03-03T13:38:55.069Z,57.30
2019-03-03T13:42:00.523Z,57.30
2019-03-03T13:45:04.176Z,57.60
2019-03-03T13:48:10.916Z,57.40
2019-03-03T13:51:23.344Z,57.40
2019-03-03T13:54:29.488Z,57.50
2019-03-03T13:57:47.522Z,57.30
2019-03-03T14:00:53.062Z,57.30
2019-03-03T14:04:08.505Z,57.60
2019-03-03T14:07:26.930Z,57.80
2019-03-03T14:10:48.954Z,58.00
2019-03-03T14:13:52.369Z,58.20
2019-03-03T14:16:57.309Z,58.50
2019-03-03T14:20:01.139Z,58.70
2019-03-03T14:22:54.719Z,58.70
2019-03-03T14:26:18.125Z,58.80
2019-03-03T14:29:25.994Z,59.00
2019-03-03T14:32:30.812Z,59.00
2019-03-03T14:36:07.646Z,59.10
2019-03-03T14:39:04.255Z,59.10
2019-03-03T14:42:37.247Z,59.10
2019-03-03T14:46:03.017Z,59.10
2019-03-03T14:49:08.859Z,58.90
2019-03-03T14:52:30.383Z,59.20
2019-03-03T14:55:54.077Z,59.20
2019-03-03T14:59:15.268Z,59.20
2019-03-03T15:02:18.875Z,59.40
2019-03-03T15:05:10.101Z,59.60
2019-03-03T15:08:14.622Z,59.80
2019-03-03T15:11:38.509Z,60.50
2019-03-03T15:14:32.696Z,61.20
2019-03-03T15:17:30.442Z,60.80
2019-03-03T15:24:12.325Z,61.10
2019-03-03T15:27:22.511Z,61.40
2019-03-03T15:30:39.500Z,61.90
2019-03-03T15:33:42.661Z,61.80
2019-03-03T15:36:50.487Z,61.90
2019-03-03T15:40:00.576Z,62.20
2019-03-03T15:43:29.743Z,62.20
2019-03-03T15:46:31.635Z,62.30
2019-03-03T15:49:47.308Z,62.30
2019-03-03T15:52:48.872Z,62.40
2019-03-03T15:55:56.652Z,62.50
2019-03-03T15:58:55.591Z,62.50
2019-03-03T16:01:45.192Z,62.60
2019-03-03T16:04:58.344Z,62.70
2019-03-03T16:08:07.134Z,62.70
2019-03-03T16:11:08.857Z,62.90
2019-03-03T16:13:54.226Z,63.00
2019-03-03T16:16:46.905Z,63.10
2019-03-03T16:19:50.591Z,63.10
2019-03-03T16:22:56.476Z,63.10
2019-03-03T16:26:21.176Z,63.10
2019-03-03T16:29:09.238Z,63.10
2019-03-03T16:32:38.408Z,63.20
2019-03-03T16:35:25.127Z,63.20
2019-03-03T16:38:36.622Z,63.50
2019-03-03T16:41:24.158Z,63.60
2019-03-03T16:44:31.698Z,63.50
2019-03-03T16:47:41.430Z,63.50
2019-03-03T16:50:33.144Z,63.70
2019-03-03T16:53:50.577Z,63.70
2019-03-03T16:56:44.609Z,63.90
2019-03-03T16:59:45.165Z,64.60
2019-03-03T17:02:36.727Z,63.80
2019-03-03T17:05:29.226Z,63.90
2019-03-03T17:08:13.654Z,63.90
2019-03-03T17:10:56.898Z,64.00
2019-03-03T17:13:51.300Z,63.80
2019-03-03T17:16:29.518Z,63.80
2019-03-03T17:22:09.529Z,63.90
2019-03-03T17:24:58.827Z,63.80
2019-03-03T17:27:49.323Z,63.80
2019-03-03T17:30:28.810Z,63.90
2019-03-03T17:33:16.713Z,63.80
2019-03-03T17:36:00.069Z,64.10
2019-03-03T17:38:41.096Z,64.00
2019-03-03T17:41:25.394Z,63.80
2019-03-03T17:44:05.944Z,63.90
2019-03-03T17:46:47.893Z,63.80
2019-03-03T17:49:32.175Z,63.90
2019-03-03T17:52:29.217Z,63.90
2019-03-03T17:54:59.819Z,64.00
2019-03-03T17:58:01.533Z,64.00
2019-03-03T18:00:49.185Z,64.00
2019-03-03T18:03:33.377Z,63.80
2019-03-03T18:06:17.402Z,63.80
2019-03-03T18:09:09.200Z,63.90
2019-03-03T18:11:52.218Z,64.00
2019-03-03T18:14:32.689Z,64.90
2019-03-03T18:17:20.666Z,64.10
2019-03-03T18:20:07.034Z,64.10
2019-03-03T18:22:46.033Z,64.30
2019-03-03T18:25:27.792Z,64.30
2019-03-03T18:28:22.804Z,64.20
2019-03-03T18:31:05.477Z,64.20
2019-03-03T18:33:51.039Z,64.20
2019-03-03T18:36:35.044Z,64.20
2019-03-03T18:39:19.382Z,64.20
2019-03-03T18:42:03.494Z,64.30
2019-03-03T18:44:51.071Z,64.20
2019-03-03T18:47:36.926Z,64.40
2019-03-03T18:50:18.950Z,64.40
2019-03-03T18:53:02.401Z,64.60
2019-03-03T18:55:43.536Z,64.40
2019-03-03T18:58:25.640Z,64.30
2019-03-03T19:01:09.839Z,64.30
2019-03-03T19:03:53.730Z,64.40
2019-03-03T19:06:35.016Z,64.50
2019-03-03T19:09:21.423Z,64.50
2019-03-03T19:12:01.104Z,64.40
2019-03-03T19:14:40.936Z,64.60
2019-03-03T19:17:23.112Z,64.60
2019-03-03T19:20:06.425Z,64.50
2019-03-03T19:22:49.115Z,64.40
2019-03-03T19:25:39.334Z,64.50
2019-03-03T19:28:18.211Z,64.60
2019-03-03T19:30:59.246Z,64.80
2019-03-03T19:33:53.166Z,65.40
2019-03-03T19:36:36.523Z,64.70
2019-03-03T19:39:21.171Z,64.80
2019-03-03T19:42:02.138Z,64.80
2019-03-03T19:44:47.357Z,64.80
2019-03-03T19:47:29.053Z,64.90
2019-03-03T19:50:06.827Z,65.00
2019-03-03T19:52:47.138Z,65.00
2019-03-03T19:55:26.370Z,65.00
2019-03-03T19:58:06.396Z,65.00
2019-03-03T20:00:45.304Z,65.00
2019-03-03T20:03:32.980Z,64.90
2019-03-03T20:06:14.642Z,65.80
2019-03-03T20:08:57.689Z,65.10
2019-03-03T20:11:55.730Z,65.30
2019-03-03T20:14:36.718Z,65.30
2019-03-03T20:17:17.252Z,65.10
2019-03-03T20:20:28.754Z,65.30
2019-03-03T20:23:09.125Z,65.30
2019-03-03T20:25:48.811Z,65.70
2019-03-03T20:28:31.582Z,65.60
2019-03-03T20:34:29.459Z,65.60
2019-03-03T20:37:11.414Z,65.60
2019-03-03T20:39:52.842Z,65.70
2019-03-03T20:42:33.637Z,65.60
2019-03-03T20:45:16.124Z,65.60
2019-03-03T20:48:15.640Z,65.60
2019-03-03T20:50:56.227Z,65.60
2019-03-03T20:53:36.445Z,65.60
2019-03-03T20:56:16.383Z,65.50
2019-03-03T20:59:00.697Z,65.60
2019-03-03T21:02:00.467Z,65.60
2019-03-03T21:04:42.167Z,66.20
2019-03-03T21:07:21.619Z,65.90
2019-03-03T21:10:03.837Z,66.10
2019-03-03T21:12:44.726Z,65.90
2019-03-03T21:15:25.194Z,65.90
2019-03-03T21:18:09.789Z,65.90
2019-03-03T21:20:50.574Z,65.80
2019-03-03T21:23:30.283Z,65.90
2019-03-03T21:26:10.883Z,65.90
2019-03-03T21:28:51.643Z,66.00
2019-03-03T21:31:33.730Z,66.00
2019-03-03T21:34:14.470Z,65.90
2019-03-03T21:36:57.572Z,66.10
2019-03-03T21:39:41.603Z,66.00
2019-03-03T21:42:21.900Z,66.00
2019-03-03T21:45:03.137Z,66.00
2019-03-03T21:47:47.006Z,66.00
2019-03-03T21:50:28.090Z,66.00
2019-03-03T21:53:11.444Z,66.00
2019-03-03T21:55:53.228Z,65.90
2019-03-03T21:58:33.655Z,66.00
2019-03-03T22:01:15.041Z,66.00
2019-03-03T22:03:59.916Z,66.10
2019-03-03T22:06:39.440Z,66.10
2019-03-03T22:09:19.842Z,66.10
2019-03-03T22:12:04.069Z,66.20
2019-03-03T22:14:45.022Z,66.30
2019-03-03T22:17:27.675Z,66.20
2019-03-03T22:20:05.795Z,66.40
2019-03-03T22:22:47.282Z,66.40
2019-03-03T22:25:28.844Z,66.50
2019-03-03T22:28:09.710Z,66.50
2019-03-03T22:30:51.766Z,66.50
2019-03-03T22:33:36.881Z,66.60
2019-03-03T22:36:20.032Z,66.60
2019-03-03T22:39:06.391Z,66.50
2019-03-03T22:41:49.084Z,66.50
2019-03-03T22:44:33.175Z,66.70
2019-03-03T22:47:10.756Z,66.80
2019-03-03T22:49:57.396Z,66.60
2019-03-03T22:52:37.051Z,66.70
2019-03-03T22:55:16.040Z,66.80
2019-03-03T22:57:55.021Z,66.80
2019-03-03T23:00:55.156Z,66.70
2019-03-03T23:03:46.465Z,67.50
2019-03-03T23:06:58.051Z,66.70
2019-03-03T23:09:57.227Z,66.60
2019-03-03T23:12:58.711Z,66.80
2019-03-03T23:16:05.602Z,66.90
2019-03-03T23:19:15.819Z,67.30
2019-03-03T23:22:17.138Z,67.30
2019-03-03T23:25:35.105Z,67.00
2019-03-03T23:28:19.821Z,67.40
2019-03-03T23:30:58.842Z,67.90
2019-03-03T23:33:41.230Z,68.10
2019-03-03T23:36:23.704Z,67.60
2019-03-03T23:39:03.589Z,67.50
2019-03-03T23:41:45.720Z,67.50
2019-03-03T23:44:27.804Z,68.60
2019-03-03T23:47:07.872Z,67.90
2019-03-03T23:49:50.488Z,67.70
2019-03-03T23:52:33.120Z,68.60
2019-03-03T23:55:12.824Z,68.10
2019-03-03T23:57:53.996Z,67.80
